Time;durP1;ratioP1;P1;durP2;ratioP2;P2;SDS_P1;SDS_P2;PMS_P1;PMS_P2;Temp;Humidity;BMP_temperature;BMP_pressure;BME280_temperature;BME280_humidity;BME280_pressure;Samples;Min_cycle;Max_cycle;Signal;HPM_P1;HPM_P2
2023/04/22 00:02:03;;;;;;;4.50;3.28;;;;;;;12.74;59.26;100727.38;5094858;28;20116;-69
2023/04/22 00:04:32;;;;;;;5.63;3.72;;;;;;;12.80;59.21;100734.50;5101073;28;20044;-69
2023/04/22 00:07:01;;;;;;;5.63;3.83;;;;;;;12.78;58.90;100734.75;5104962;28;20039;-69
2023/04/22 00:09:28;;;;;;;7.35;3.67;;;;;;;12.77;59.27;100726.88;5108354;28;20048;-69
2023/04/22 00:11:58;;;;;;;5.03;3.30;;;;;;;12.77;59.00;100732.28;5098458;28;20178;-69
2023/04/22 00:14:25;;;;;;;4.28;3.15;;;;;;;12.74;59.07;100732.75;5098346;28;20048;-69
2023/04/22 00:16:53;;;;;;;5.35;3.72;;;;;;;12.74;58.88;100735.47;5090649;28;20410;-68
2023/04/22 00:19:21;;;;;;;5.28;3.03;;;;;;;12.73;59.27;100734.63;5101599;28;20143;-68
2023/04/22 00:21:49;;;;;;;6.30;4.20;;;;;;;12.71;59.22;100736.75;5100854;28;20071;-68
2023/04/22 00:24:17;;;;;;;4.05;3.17;;;;;;;12.69;58.87;100728.09;5100154;28;20159;-68
2023/04/22 00:26:44;;;;;;;5.55;3.83;;;;;;;12.68;59.21;100729.97;5103516;28;20057;-69
2023/04/22 00:29:13;;;;;;;6.20;3.45;;;;;;;12.66;59.13;100733.94;5088422;28;20099;-68
2023/04/22 00:31:41;;;;;;;5.45;4.03;;;;;;;12.66;58.86;100728.56;5087634;28;20049;-68
2023/04/22 00:34:09;;;;;;;4.95;3.55;;;;;;;12.64;58.70;100734.19;5097861;28;20051;-68
2023/04/22 00:36:37;;;;;;;5.38;3.92;;;;;;;12.53;59.06;100723.44;5100263;28;20108;-69
2023/04/22 00:39:05;;;;;;;6.63;3.90;;;;;;;12.61;58.99;100731.16;5108684;28;20044;-67
2023/04/22 00:41:34;;;;;;;5.22;3.78;;;;;;;12.59;58.85;100733.25;5102638;28;20074;-68
2023/04/22 00:44:02;;;;;;;5.90;3.83;;;;;;;12.59;59.07;100735.97;5103186;28;20058;-69
2023/04/22 00:46:33;;;;;;;3.97;3.10;;;;;;;12.57;59.03;100728.09;5101091;28;20051;-69
2023/04/22 00:49:02;;;;;;;4.90;3.80;;;;;;;12.57;59.27;100730.81;5110147;28;20354;-69
2023/04/22 00:51:30;;;;;;;6.30;3.63;;;;;;;12.54;58.90;100735.84;5100999;28;20120;-68
2023/04/22 00:54:00;;;;;;;5.75;3.25;;;;;;;12.54;58.95;100738.53;5103066;28;20071;-69
2023/04/22 00:56:29;;;;;;;4.68;3.42;;;;;;;12.54;59.03;100746.63;5099620;28;20032;-69
2023/04/22 00:58:58;;;;;;;4.63;3.28;;;;;;;12.53;59.26;100742.31;5104364;28;20315;-70
2023/04/22 01:01:26;;;;;;;7.15;3.50;;;;;;;12.53;58.90;100745.81;5096703;28;20040;-70
2023/04/22 01:03:56;;;;;;;4.53;3.47;;;;;;;12.50;59.25;100734.69;5097320;28;20055;-68
2023/04/22 01:06:25;;;;;;;5.55;3.47;;;;;;;12.50;59.17;100740.06;5100299;28;20498;-68
2023/04/22 01:08:54;;;;;;;6.43;3.70;;;;;;;12.47;59.00;100733.28;5099517;28;20097;-69
2023/04/22 01:11:22;;;;;;;4.95;3.67;;;;;;;12.46;59.28;100731.66;5100069;28;20044;-69
2023/04/22 01:13:50;;;;;;;4.30;3.33;;;;;;;12.46;59.07;100728.94;5101169;28;20058;-68
2023/04/22 01:16:18;;;;;;;4.75;3.45;;;;;;;12.46;58.92;100728.13;5099349;28;20108;-69
2023/04/22 01:18:46;;;;;;;4.75;3.10;;;;;;;12.43;59.26;100729.41;5097294;28;20118;-69
2023/04/22 01:21:15;;;;;;;4.68;3.03;;;;;;;12.42;59.28;100725.09;5087943;28;20081;-68
2023/04/22 01:23:45;;;;;;;4.63;3.10;;;;;;;12.42;59.12;100730.47;5111776;28;20054;-69
2023/04/22 01:26:13;;;;;;;4.22;3.10;;;;;;;12.39;58.94;100723.69;5100239;28;20044;-69
2023/04/22 01:28:41;;;;;;;5.88;3.40;;;;;;;12.39;59.43;100728.25;5101963;28;20072;-68
2023/04/22 01:31:09;;;;;;;7.32;2.78;;;;;;;12.38;59.37;100722.03;5087127;28;20378;-69
2023/04/22 01:33:37;;;;;;;3.88;2.67;;;;;;;12.38;59.08;100726.63;5101504;28;20050;-69
2023/04/22 01:36:05;;;;;;;9.30;3.55;;;;;;;12.38;59.17;100724.75;5093485;28;20083;-70
2023/04/22 01:38:34;;;;;;;4.60;3.00;;;;;;;12.36;59.29;100718.78;5096599;28;20307;-69
2023/04/22 01:41:03;;;;;;;6.43;3.30;;;;;;;12.35;58.98;100725.22;5107344;28;20054;-70
2023/04/22 01:43:32;;;;;;;4.22;2.92;;;;;;;12.34;59.17;100723.56;5095125;28;20076;-69
2023/04/22 01:46:02;;;;;;;4.55;3.08;;;;;;;12.34;59.32;100728.97;5092835;28;20052;-70
2023/04/22 01:48:30;;;;;;;4.20;3.00;;;;;;;12.34;59.34;100728.16;5105597;28;20078;-69
2023/04/22 01:50:58;;;;;;;4.13;3.00;;;;;;;12.32;59.20;100720.31;5096608;28;20075;-69
2023/04/22 01:53:26;;;;;;;5.57;3.20;;;;;;;12.31;59.31;100713.28;5100096;28;20182;-68
2023/04/22 01:55:54;;;;;;;4.78;3.45;;;;;;;12.31;59.46;100718.66;5089558;28;20041;-69
2023/04/22 01:58:23;;;;;;;3.83;3.13;;;;;;;12.30;59.40;100719.72;5089811;28;20142;-69
2023/04/22 02:00:51;;;;;;;4.85;3.03;;;;;;;12.29;59.10;100720.78;5098012;28;20130;-69
2023/04/22 02:03:19;;;;;;;6.45;3.25;;;;;;;12.28;59.45;100726.41;5104694;28;20382;-69
2023/04/22 02:05:47;;;;;;;4.82;3.17;;;;;;;12.28;59.28;100721.00;5098402;28;20076;-69
2023/04/22 02:08:14;;;;;;;5.88;2.97;;;;;;;12.27;59.17;100717.50;5099988;28;20048;-69
2023/04/22 02:10:42;;;;;;;6.15;2.97;;;;;;;12.28;59.37;100721.00;5098989;28;20050;-69
2023/04/22 02:13:10;;;;;;;5.30;3.38;;;;;;;12.25;59.48;100719.59;5103699;28;20250;-70
2023/04/22 02:15:40;;;;;;;5.40;3.25;;;;;;;12.24;59.25;100709.88;5098063;28;20153;-70
2023/04/22 02:18:09;;;;;;;5.07;2.80;;;;;;;12.23;59.61;100716.31;5097458;28;20045;-69
2023/04/22 02:20:37;;;;;;;4.25;2.80;;;;;;;12.23;59.28;100707.41;5098045;28;20063;-70
2023/04/22 02:23:05;;;;;;;4.20;3.10;;;;;;;12.22;59.53;100700.41;5095751;28;20078;-69
2023/04/22 02:25:33;;;;;;;6.72;3.10;;;;;;;12.20;59.44;100703.31;5103429;28;20037;-69
2023/04/22 02:28:00;;;;;;;5.13;3.42;;;;;;;12.18;59.52;100705.44;5102852;28;20542;-69
2023/04/22 02:30:29;;;;;;;4.85;3.38;;;;;;;12.18;59.29;100700.03;5091021;28;20040;-69
2023/04/22 02:32:58;;;;;;;4.20;2.92;;;;;;;12.17;59.66;100698.41;5094927;28;20097;-69
2023/04/22 02:35:25;;;;;;;4.20;3.13;;;;;;;12.15;59.68;100697.81;5100835;28;20044;-68
2023/04/22 02:37:53;;;;;;;4.38;2.80;;;;;;;12.14;59.78;100706.97;5107594;28;20540;-68
2023/04/22 02:40:21;;;;;;;7.65;3.42;;;;;;;12.15;59.67;100708.59;5100141;28;20048;-69
2023/04/22 02:42:49;;;;;;;6.07;3.38;;;;;;;12.15;59.69;100705.09;5097337;28;20445;-69
2023/04/22 02:45:17;;;;;;;6.63;3.30;;;;;;;12.13;59.79;100699.97;5092387;28;20047;-69
2023/04/22 02:47:45;;;;;;;4.90;3.40;;;;;;;12.12;60.05;100700.19;5105513;28;20074;-69
2023/04/22 02:50:14;;;;;;;4.20;3.00;;;;;;;12.10;59.95;100691.53;5094770;28;20062;-69
2023/04/22 02:52:42;;;;;;;4.05;3.00;;;;;;;12.07;59.71;100692.81;5099530;28;20111;-69
2023/04/22 02:55:10;;;;;;;4.22;3.08;;;;;;;12.10;59.81;100703.13;5096922;28;20044;-69
2023/04/22 02:57:37;;;;;;;4.65;3.00;;;;;;;12.09;59.67;100706.06;5092291;28;20433;-69
2023/04/22 03:00:07;;;;;;;5.78;3.15;;;;;;;12.07;59.97;100695.53;5102633;28;20048;-69
2023/04/22 03:02:35;;;;;;;3.83;2.78;;;;;;;12.08;59.87;100701.72;5096292;28;20048;-69
2023/04/22 03:05:03;;;;;;;5.13;3.55;;;;;;;12.05;59.80;100703.84;5089860;28;20056;-69
2023/04/22 03:07:32;;;;;;;4.45;3.28;;;;;;;12.05;59.90;100697.63;5103955;28;20131;-69
2023/04/22 03:10:00;;;;;;;5.20;3.28;;;;;;;12.03;60.02;100688.97;5103816;28;20060;-69
2023/04/22 03:12:28;;;;;;;4.85;3.33;;;;;;;12.02;60.16;100690.84;5104037;28;20083;-69
2023/04/22 03:14:56;;;;;;;4.13;3.35;;;;;;;12.01;59.85;100683.81;5100663;28;20123;-68
2023/04/22 03:17:24;;;;;;;4.00;2.72;;;;;;;12.01;60.16;100683.81;5099632;28;20046;-69
2023/04/22 03:19:52;;;;;;;4.78;3.97;;;;;;;12.01;60.10;100680.28;5093301;28;20052;-69
2023/04/22 03:22:20;;;;;;;5.50;3.33;;;;;;;11.99;59.91;100669.75;5098695;28;20048;-69
2023/04/22 03:24:49;;;;;;;6.05;3.58;;;;;;;11.99;59.72;100666.25;5104514;28;20071;-69
2023/04/22 03:27:17;;;;;;;4.00;3.10;;;;;;;11.98;60.17;100670.00;5102447;28;20103;-69
2023/04/22 03:29:44;;;;;;;4.82;2.85;;;;;;;11.97;59.87;100668.34;5097291;28;20058;-69
2023/04/22 03:32:12;;;;;;;3.65;2.72;;;;;;;11.95;60.13;100657.81;5108664;28;20049;-70
2023/04/22 03:34:40;;;;;;;3.35;2.75;;;;;;;11.94;59.98;100656.19;5117014;28;20081;-69
2023/04/22 03:37:09;;;;;;;4.15;2.80;;;;;;;11.93;60.19;100642.94;5100539;28;20068;-69
2023/04/22 03:39:37;;;;;;;3.65;2.53;;;;;;;11.92;60.25;100650.22;5094055;28;20379;-69
2023/04/22 03:42:07;;;;;;;3.80;3.00;;;;;;;11.92;60.39;100649.38;5105670;28;20062;-69
2023/04/22 03:44:34;;;;;;;5.40;3.67;;;;;;;11.92;60.38;100641.31;5112322;28;20079;-69
2023/04/22 03:47:02;;;;;;;3.85;2.85;;;;;;;11.92;59.91;100647.53;5101933;28;20036;-69
2023/04/22 03:49:30;;;;;;;4.43;3.08;;;;;;;11.91;60.33;100651.25;5106027;28;20455;-70
2023/04/22 03:51:58;;;;;;;4.57;3.33;;;;;;;11.91;60.06;100640.50;5090948;28;20075;-68
2023/04/22 03:54:26;;;;;;;4.90;2.90;;;;;;;11.88;60.60;100640.97;5109259;28;20052;-69
2023/04/22 03:56:54;;;;;;;4.32;3.35;;;;;;;11.89;60.20;100634.53;5099348;28;20040;-68
2023/04/22 03:59:23;;;;;;;4.78;3.45;;;;;;;11.88;60.09;100637.44;5094207;28;20070;-68
2023/04/22 04:01:52;;;;;;;5.50;3.90;;;;;;;11.85;60.23;100627.97;5102039;28;20529;-68
2023/04/22 04:04:22;;;;;;;4.90;3.40;;;;;;;11.88;60.21;100632.06;5108017;28;20050;-69
2023/04/22 04:06:51;;;;;;;4.90;3.60;;;;;;;11.87;60.29;100616.97;5104986;28;20074;-69
2023/04/22 04:09:18;;;;;;;6.53;3.70;;;;;;;11.86;60.39;100613.44;5104193;28;20107;-69
2023/04/22 04:11:46;;;;;;;4.97;3.70;;;;;;;11.86;60.43;100609.94;4748977;28;10001264;-70
2023/04/22 04:14:14;;;;;;;5.40;3.70;;;;;;;11.85;60.49;100609.13;5102869;28;20067;-68
2023/04/22 04:16:43;;;;;;;7.13;3.88;;;;;;;11.86;60.46;100607.25;5101797;28;20047;-68
2023/04/22 04:19:11;;;;;;;5.35;3.35;;;;;;;11.84;60.28;100607.47;5093667;28;20076;-69
2023/04/22 04:21:39;;;;;;;6.13;3.47;;;;;;;11.83;60.31;100605.03;5089638;28;20052;-69
2023/04/22 04:24:07;;;;;;;5.25;3.85;;;;;;;11.82;60.52;100611.47;5097514;28;20078;-69
2023/04/22 04:26:35;;;;;;;5.18;3.42;;;;;;;11.80;60.31;100617.09;5101389;28;20048;-69
2023/04/22 04:29:02;;;;;;;5.70;3.88;;;;;;;11.81;60.54;100625.97;5101183;28;20116;-68
2023/04/22 04:31:30;;;;;;;5.57;3.65;;;;;;;11.80;60.32;100618.97;5093579;28;20043;-68
2023/04/22 04:33:59;;;;;;;6.63;3.30;;;;;;;11.78;60.37;100626.44;5096151;28;20086;-69
2023/04/22 04:36:28;;;;;;;3.95;3.15;;;;;;;11.77;60.45;100627.47;5103217;28;20062;-68
2023/04/22 04:38:56;;;;;;;6.55;3.80;;;;;;;11.76;60.63;100621.28;5091671;28;20053;-70
2023/04/22 04:41:25;;;;;;;5.22;3.47;;;;;;;11.75;60.25;100616.94;5089902;28;20143;-69
2023/04/22 04:43:53;;;;;;;4.95;3.42;;;;;;;11.75;60.37;100622.31;5093601;28;20060;-69
2023/04/22 04:46:22;;;;;;;4.63;3.45;;;;;;;11.74;60.39;100634.16;5100822;28;20044;-69
2023/04/22 04:48:50;;;;;;;4.00;3.15;;;;;;;11.74;60.31;100632.28;5100340;28;20059;-69
2023/04/22 04:51:19;;;;;;;5.43;3.53;;;;;;;11.72;60.69;100634.38;5096366;28;20090;-67
2023/04/22 04:53:47;;;;;;;4.45;3.45;;;;;;;11.69;60.34;100626.78;5084690;28;20044;-67
2023/04/22 04:56:15;;;;;;;4.15;3.55;;;;;;;11.70;60.71;100630.28;5107604;28;20043;-68
2023/04/22 04:58:43;;;;;;;5.90;3.90;;;;;;;11.69;60.57;100640.22;5103118;28;20052;-68
2023/04/22 05:01:11;;;;;;;4.88;3.58;;;;;;;11.70;60.46;100635.66;5096723;28;20116;-68
2023/04/22 05:03:38;;;;;;;4.90;3.35;;;;;;;11.69;60.44;100632.16;5094284;28;20048;-69
2023/04/22 05:06:07;;;;;;;4.47;3.30;;;;;;;11.70;60.42;100622.22;5091558;28;20113;-69
2023/04/22 05:08:36;;;;;;;4.78;3.40;;;;;;;11.68;60.59;100624.31;5092915;28;20041;-69
2023/04/22 05:11:04;;;;;;;8.80;4.30;;;;;;;11.64;61.66;100621.28;5095676;28;20147;-71
2023/04/22 05:13:32;;;;;;;6.75;4.57;;;;;;;11.63;61.41;100616.94;5095672;28;20046;-71
2023/04/22 05:15:59;;;;;;;4.72;3.70;;;;;;;11.63;61.29;100608.06;5100773;28;20078;-70
2023/04/22 05:18:27;;;;;;;6.45;4.25;;;;;;;11.63;61.33;100616.13;5096332;28;20284;-71
2023/04/22 05:20:57;;;;;;;4.95;3.65;;;;;;;11.62;61.19;100620.69;5086971;28;20052;-72
2023/04/22 05:23:25;;;;;;;3.97;3.13;;;;;;;11.61;61.10;100620.91;5090607;28;20052;-71
2023/04/22 05:25:55;;;;;;;5.03;3.88;;;;;;;11.59;60.99;100618.47;5093663;28;20040;-72
2023/04/22 05:28:23;;;;;;;6.70;4.28;;;;;;;11.62;61.51;100622.56;5091441;28;20549;-72
2023/04/22 05:30:50;;;;;;;7.13;3.70;;;;;;;11.62;61.07;100619.88;5095636;28;20054;-70
2023/04/22 05:33:18;;;;;;;6.35;4.18;;;;;;;11.61;61.16;100620.91;5096003;28;20071;-71
2023/04/22 05:35:46;;;;;;;4.95;3.40;;;;;;;11.62;61.10;100617.19;5085456;28;20052;-70
2023/04/22 05:38:14;;;;;;;5.55;3.13;;;;;;;11.62;60.89;100606.41;5094558;28;20547;-68
2023/04/22 05:40:41;;;;;;;5.32;3.50;;;;;;;11.61;60.97;100610.97;5090355;28;20064;-70
2023/04/22 05:43:10;;;;;;;4.60;3.40;;;;;;;11.63;61.01;100622.31;5102890;28;20059;-71
2023/04/22 05:45:38;;;;;;;5.00;3.63;;;;;;;11.62;60.81;100612.63;5097089;28;20113;-70
2023/04/22 05:48:06;;;;;;;7.03;3.80;;;;;;;11.62;61.10;100618.00;5096137;28;20097;-70
2023/04/22 05:50:34;;;;;;;8.73;3.85;;;;;;;11.62;60.71;100617.19;5093404;28;20047;-68
2023/04/22 05:53:02;;;;;;;8.95;3.60;;;;;;;11.62;61.27;100612.63;5087789;28;20135;-67
2023/04/22 05:55:29;;;;;;;5.15;3.97;;;;;;;11.63;61.14;100610.75;5097612;28;20087;-74
2023/04/22 05:57:57;;;;;;;8.07;3.97;;;;;;;11.64;61.29;100609.69;5095422;28;20135;-65
2023/04/22 06:00:26;;;;;;;5.38;3.95;;;;;;;11.65;61.23;100619.41;5096155;28;20116;-70
2023/04/22 06:02:54;;;;;;;6.15;3.92;;;;;;;11.65;61.53;100603.25;5098931;28;20054;-71
2023/04/22 06:05:22;;;;;;;6.35;3.72;;;;;;;11.65;61.80;100604.06;5097368;28;20052;-68
2023/04/22 06:07:50;;;;;;;5.22;3.60;;;;;;;11.67;61.80;100607.34;5093668;28;20086;-72
2023/04/22 06:10:18;;;;;;;4.80;3.53;;;;;;;11.69;61.76;100607.94;5099896;28;20495;-72
2023/04/22 06:12:45;;;;;;;9.38;3.78;;;;;;;11.66;61.58;100608.41;5099571;28;20048;-71
2023/04/22 06:15:13;;;;;;;5.43;3.70;;;;;;;11.71;61.93;100613.09;5093385;28;20071;-72
2023/04/22 06:17:43;;;;;;;4.20;3.38;;;;;;;11.71;61.52;100619.28;5100856;28;20040;-71
2023/04/22 06:20:12;;;;;;;4.60;2.95;;;;;;;11.71;61.14;100611.22;5088499;28;20102;-71
2023/04/22 06:22:40;;;;;;;5.13;3.33;;;;;;;11.73;61.52;100611.78;5099989;28;20152;-71
2023/04/22 06:25:08;;;;;;;4.22;3.20;;;;;;;11.76;61.33;100607.81;5097457;28;20058;-71
2023/04/22 06:27:36;;;;;;;4.80;3.03;;;;;;;11.77;61.38;100614.00;5088705;28;20047;-73
2023/04/22 06:30:04;;;;;;;4.65;2.78;;;;;;;11.78;61.29;100616.50;4742700;28;10000443;-69
2023/04/22 06:32:32;;;;;;;4.35;3.08;;;;;;;11.80;61.22;100603.63;5094446;28;20059;-70
2023/04/22 06:35:01;;;;;;;5.10;3.20;;;;;;;11.84;61.22;100606.66;5090011;28;20052;-70
2023/04/22 06:37:29;;;;;;;3.75;3.05;;;;;;;11.82;61.11;100587.22;5089965;28;20052;-70
2023/04/22 06:39:57;;;;;;;4.80;3.13;;;;;;;11.85;61.32;100590.28;5095729;28;20066;-70
2023/04/22 06:42:24;;;;;;;5.72;3.15;;;;;;;11.87;61.21;100582.78;5091089;28;20100;-69
2023/04/22 06:44:52;;;;;;;4.70;2.97;;;;;;;11.91;61.33;100588.50;5096378;28;20048;-69
2023/04/22 06:47:20;;;;;;;3.85;3.05;;;;;;;11.91;61.31;100592.03;5089543;28;20055;-70
2023/04/22 06:49:49;;;;;;;4.85;3.03;;;;;;;11.94;61.49;100593.41;5093032;28;20090;-71
2023/04/22 06:52:18;;;;;;;6.50;3.55;;;;;;;11.96;61.46;100600.22;5096091;28;20059;-70
2023/04/22 06:54:48;;;;;;;4.50;3.35;;;;;;;11.97;61.48;100591.06;5095106;28;20051;-72
2023/04/22 06:57:16;;;;;;;5.50;3.40;;;;;;;11.98;61.47;100584.63;5091263;28;20277;-70
2023/04/22 06:59:43;;;;;;;4.43;2.60;;;;;;;12.02;61.57;100590.34;5092838;28;20052;-70
2023/04/22 07:02:13;;;;;;;5.05;3.35;;;;;;;12.04;61.56;100588.25;5087822;28;20081;-70
2023/04/22 07:04:41;;;;;;;5.00;2.80;;;;;;;12.04;61.55;100583.69;5082886;28;20067;-70
2023/04/22 07:07:09;;;;;;;4.38;3.00;;;;;;;12.07;61.29;100586.94;5085420;28;20045;-70
2023/04/22 07:09:39;;;;;;;4.00;2.67;;;;;;;12.10;61.35;100583.78;5092598;28;20045;-71
2023/04/22 07:12:07;;;;;;;5.65;2.47;;;;;;;12.12;61.22;100578.97;5085115;28;20083;-71
2023/04/22 07:14:35;;;;;;;4.78;3.20;;;;;;;12.13;61.62;100577.91;5097867;28;20142;-70
2023/04/22 07:17:02;;;;;;;3.30;2.50;;;;;;;12.13;61.54;100584.13;5090195;28;20052;-70
2023/04/22 07:19:30;;;;;;;3.92;2.75;;;;;;;12.15;61.62;100575.78;5099882;28;20048;-69
2023/04/22 07:22:02;;;;;;;4.13;2.95;;;;;;;12.15;62.04;100578.47;5099554;28;20444;-71
2023/04/22 07:24:30;;;;;;;4.20;2.80;;;;;;;12.15;61.71;100581.97;5097738;28;20047;-70
2023/04/22 07:27:00;;;;;;;6.25;3.00;;;;;;;12.16;61.78;100580.94;5104053;28;20450;-70
2023/04/22 07:29:28;;;;;;;4.80;2.55;;;;;;;12.17;62.03;100595.22;5102109;28;20131;-69
2023/04/22 07:31:56;;;;;;;3.60;2.60;;;;;;;12.17;62.29;100585.25;5098173;28;20074;-68
2023/04/22 07:34:24;;;;;;;3.53;2.72;;;;;;;12.18;62.22;100573.41;5094276;28;20062;-70
2023/04/22 07:36:52;;;;;;;4.68;3.03;;;;;;;12.18;61.75;100584.19;5086421;28;20370;-70
2023/04/22 07:39:20;;;;;;;5.25;2.88;;;;;;;12.19;61.84;100577.75;5098355;28;20052;-71
2023/04/22 07:41:48;;;;;;;4.97;2.92;;;;;;;12.20;62.01;100595.56;5086094;28;20067;-70
2023/04/22 07:44:17;;;;;;;4.57;2.50;;;;;;;12.13;62.61;100586.81;5099790;28;20052;-71
2023/04/22 07:46:45;;;;;;;6.82;3.20;;;;;;;12.19;62.43;100593.09;5086309;28;20052;-71
2023/04/22 07:49:13;;;;;;;4.82;2.65;;;;;;;12.21;62.37;100582.91;5091751;28;20040;-71
2023/04/22 07:51:41;;;;;;;4.13;2.67;;;;;;;12.23;62.45;100580.78;5097535;28;20452;-70
2023/04/22 07:54:09;;;;;;;3.25;2.50;;;;;;;12.23;62.31;100567.31;5097911;28;20048;-71
2023/04/22 07:56:36;;;;;;;6.80;2.63;;;;;;;12.24;62.33;100567.06;5086643;28;20043;-70
2023/04/22 07:59:04;;;;;;;4.28;2.92;;;;;;;12.24;62.24;100564.38;5089060;28;20048;-72
2023/04/22 08:01:33;;;;;;;4.75;2.85;;;;;;;12.26;62.53;100558.75;5097476;28;20054;-71
2023/04/22 08:04:01;;;;;;;4.57;2.70;;;;;;;12.21;62.26;100547.88;5086920;28;20154;-69
2023/04/22 08:06:30;;;;;;;4.35;2.58;;;;;;;12.28;62.69;100548.56;5093989;28;20056;-70
2023/04/22 08:08:58;;;;;;;4.88;3.10;;;;;;;12.30;62.46;100555.34;5085198;28;20076;-70
2023/04/22 08:11:26;;;;;;;5.50;3.22;;;;;;;12.29;62.26;100551.00;5098538;28;20233;-71
2023/04/22 08:13:54;;;;;;;6.35;2.80;;;;;;;12.31;62.33;100551.59;5099186;28;20066;-70
2023/04/22 08:16:22;;;;;;;3.70;2.67;;;;;;;12.26;62.63;100542.59;5096391;28;20078;-71
2023/04/22 08:18:52;;;;;;;4.93;3.05;;;;;;;12.34;62.71;100548.41;5099185;28;20067;-71
2023/04/22 08:21:19;;;;;;;5.78;2.75;;;;;;;12.34;62.82;100540.31;5095500;28;20070;-68
2023/04/22 08:23:47;;;;;;;5.35;3.30;;;;;;;12.35;62.83;100527.66;5099442;28;20253;-69
2023/04/22 08:26:15;;;;;;;8.13;2.80;;;;;;;12.39;63.06;100537.72;5092797;28;20070;-69
2023/04/22 08:28:43;;;;;;;7.63;3.00;;;;;;;12.36;63.35;100532.81;5097870;28;20048;-69
2023/04/22 08:31:11;;;;;;;3.65;2.60;;;;;;;12.43;63.03;100529.16;5084589;28;20130;-70
2023/04/22 08:33:40;;;;;;;4.75;3.20;;;;;;;12.45;63.11;100527.84;5104308;28;20499;-70
2023/04/22 08:36:10;;;;;;;4.93;3.28;;;;;;;12.47;63.49;100516.84;5088379;28;20213;-71
2023/04/22 08:38:37;;;;;;;4.32;2.80;;;;;;;12.48;63.66;100511.19;5098850;28;20329;-72
2023/04/22 08:41:06;;;;;;;5.72;3.50;;;;;;;12.51;63.55;100510.72;5094933;28;20052;-68
2023/04/22 08:43:34;;;;;;;5.55;3.13;;;;;;;12.52;63.48;100511.53;5097342;28;20089;-67
2023/04/22 08:46:02;;;;;;;6.05;3.22;;;;;;;12.55;64.06;100501.09;5098485;28;20108;-68
2023/04/22 08:48:29;;;;;;;6.22;3.35;;;;;;;12.56;63.74;100483.84;5098171;28;20048;-69
2023/04/22 08:50:58;;;;;;;5.78;3.47;;;;;;;12.58;63.65;100495.22;5098049;28;20116;-69
2023/04/22 08:53:27;;;;;;;6.35;4.15;;;;;;;12.59;64.26;100493.31;5104470;28;20036;-69
2023/04/22 08:55:56;;;;;;;6.60;3.10;;;;;;;12.60;63.91;100492.25;5097921;28;20139;-70
2023/04/22 08:58:24;;;;;;;4.70;3.13;;;;;;;12.56;64.11;100477.63;5093747;28;20048;-69
2023/04/22 09:00:52;;;;;;;9.48;3.60;;;;;;;12.66;64.39;100502.06;5095508;28;20052;-70
2023/04/22 09:03:21;;;;;;;6.45;3.13;;;;;;;12.70;64.12;100500.53;5094563;28;20259;-70
2023/04/22 09:05:51;;;;;;;5.00;3.38;;;;;;;12.71;64.69;100500.28;5090840;28;20497;-70
2023/04/22 09:08:19;;;;;;;4.47;2.90;;;;;;;12.75;64.52;100511.41;5099241;28;20047;-70
2023/04/22 09:10:48;;;;;;;5.70;2.63;;;;;;;12.81;65.08;100502.31;5093937;28;20054;-68
2023/04/22 09:13:17;;;;;;;4.90;2.85;;;;;;;12.83;64.72;100507.47;5095655;28;20044;-70
2023/04/22 09:15:45;;;;;;;5.15;2.88;;;;;;;12.84;65.25;100501.84;5094427;28;20060;-70
2023/04/22 09:18:17;;;;;;;6.18;3.45;;;;;;;12.85;65.26;100489.19;5097437;28;20311;-70
2023/04/22 09:20:47;;;;;;;4.78;2.80;;;;;;;12.90;65.25;100492.78;5096077;28;20067;-71
2023/04/22 09:23:15;;;;;;;5.82;2.50;;;;;;;13.03;65.82;100494.31;5102649;28;20075;-69
2023/04/22 09:25:46;;;;;;;7.07;2.55;;;;;;;13.11;66.81;100493.09;5098242;28;20138;-69
2023/04/22 09:28:19;;;;;;;4.82;2.78;;;;;;;13.17;67.05;100486.72;5093696;28;20048;-69
2023/04/22 09:30:46;;;;;;;4.07;2.30;;;;;;;13.16;67.23;100479.66;5091728;28;20130;-68
2023/04/22 09:33:16;;;;;;;4.15;2.47;;;;;;;13.28;67.08;100489.31;5104604;28;20081;-69
2023/04/22 09:35:44;;;;;;;5.13;2.72;;;;;;;13.30;66.48;100484.50;5088158;28;20154;-68
2023/04/22 09:38:12;;;;;;;5.60;2.33;;;;;;;13.35;66.86;100487.28;5092066;28;20517;-68
2023/04/22 09:40:43;;;;;;;4.32;2.75;;;;;;;13.40;66.92;100494.63;5100888;28;20061;-69
2023/04/22 09:43:11;;;;;;;5.45;2.83;;;;;;;13.40;66.99;100486.53;5095865;28;20097;-69
2023/04/22 09:45:42;;;;;;;6.53;2.92;;;;;;;13.34;67.15;100474.84;5104908;28;20053;-67
2023/04/22 09:48:13;;;;;;;5.65;2.90;;;;;;;13.51;67.33;100500.97;5094251;28;20155;-69
2023/04/22 09:50:43;;;;;;;6.13;2.88;;;;;;;13.55;67.76;100494.81;5095791;28;20071;-69
2023/04/22 09:53:13;;;;;;;4.72;2.60;;;;;;;13.56;67.54;100495.63;5095323;28;20052;-70
2023/04/22 09:55:43;;;;;;;4.00;2.58;;;;;;;13.71;67.12;100487.75;5093004;28;20357;-69
2023/04/22 09:58:12;;;;;;;6.20;2.70;;;;;;;13.76;67.54;100498.59;5093764;28;20060;-68
2023/04/22 10:00:45;;;;;;;4.22;2.40;;;;;;;13.81;67.53;100485.16;5088215;28;20318;-70
2023/04/22 10:03:13;;;;;;;3.85;2.47;;;;;;;13.80;67.79;100486.22;5083738;28;20131;-70
2023/04/22 10:05:44;;;;;;;5.40;3.22;;;;;;;13.77;67.36;100494.84;5088404;28;20071;-69
2023/04/22 10:08:13;;;;;;;4.80;2.53;;;;;;;13.76;67.14;100489.69;5091134;28;20127;-70
2023/04/22 10:10:42;;;;;;;4.38;2.70;;;;;;;13.63;67.03;100472.78;5091440;28;20583;-70
2023/04/22 10:13:09;;;;;;;5.93;3.35;;;;;;;13.92;67.54;100495.00;5089333;28;20079;-69
2023/04/22 10:15:40;;;;;;;6.57;2.65;;;;;;;13.90;67.39;100491.72;5091256;28;20054;-68
2023/04/22 10:18:11;;;;;;;3.65;2.58;;;;;;;13.90;67.07;100496.31;5089309;28;20048;-68
2023/04/22 10:20:42;;;;;;;5.18;2.70;;;;;;;14.00;67.20;100507.25;5091386;28;20055;-68
2023/04/22 10:23:14;;;;;;;6.25;2.40;;;;;;;13.98;66.84;100482.34;5088003;28;20057;-68
2023/04/22 10:25:41;;;;;;;4.60;2.08;;;;;;;14.18;66.96;100487.16;5097118;28;20150;-70
2023/04/22 10:28:11;;;;;;;5.32;2.42;;;;;;;14.15;67.22;100485.78;5083946;28;20043;-68
2023/04/22 10:30:39;;;;;;;7.50;3.17;;;;;;;14.08;66.84;100471.66;5083749;28;20131;-69
2023/04/22 10:33:39;;;;;;;6.15;3.15;;;;;;;14.15;67.51;100474.16;5094429;28;20105;-69
2023/04/22 10:36:09;;;;;;;4.05;2.70;;;;;;;14.19;66.93;100467.19;5081006;28;20071;-69
2023/04/22 10:38:37;;;;;;;3.38;2.55;;;;;;;14.19;66.80;100459.06;5092469;28;20048;-68
2023/04/22 10:41:06;;;;;;;4.85;3.03;;;;;;;14.19;67.35;100462.59;5086958;28;20050;-69
2023/04/22 10:43:44;;;;;;;4.65;2.40;;;;;;;14.20;66.92;100471.50;5090780;28;20048;-68
2023/04/22 10:46:45;;;;;;;5.20;2.45;;;;;;;14.21;66.33;100471.25;5084910;28;20800;-71
2023/04/22 10:49:20;;;;;;;6.07;3.15;;;;;;;14.27;66.29;100474.81;5087926;28;20048;-66
2023/04/22 10:51:49;;;;;;;7.13;2.78;;;;;;;14.33;66.44;100479.22;5086916;28;20108;-69
2023/04/22 10:54:55;;;;;;;4.88;2.55;;;;;;;14.35;66.93;100482.47;5089679;28;20562;-69
2023/04/22 10:57:23;;;;;;;5.57;2.63;;;;;;;14.40;66.93;100482.53;5094099;28;20056;-65
2023/04/22 10:59:53;;;;;;;3.55;2.50;;;;;;;14.42;66.68;100487.72;5101207;28;20467;-68
2023/04/22 11:02:22;;;;;;;4.00;2.78;;;;;;;14.42;66.53;100490.41;5091643;28;20115;-68
2023/04/22 11:04:53;;;;;;;6.13;2.50;;;;;;;14.39;66.60;100477.38;5091279;28;20060;-67
2023/04/22 11:07:33;;;;;;;4.20;2.70;;;;;;;14.41;66.76;100486.03;5099189;28;20047;-71
2023/04/22 11:10:08;;;;;;;3.72;2.50;;;;;;;14.45;66.65;100487.19;5093562;28;20062;-68
2023/04/22 11:12:43;;;;;;;3.85;2.50;;;;;;;14.46;66.27;100486.13;5093784;28;20139;-68
2023/04/22 11:15:14;;;;;;;6.30;3.28;;;;;;;14.46;66.62;100480.72;5090078;28;20044;-68
2023/04/22 11:17:43;;;;;;;3.78;2.50;;;;;;;14.45;66.17;100477.19;5092629;28;20079;-69
2023/04/22 11:20:16;;;;;;;4.63;2.53;;;;;;;14.43;66.77;100482.03;5084410;28;20841;-70
2023/04/22 11:22:46;;;;;;;3.70;2.72;;;;;;;14.43;66.54;100478.53;5102933;28;20162;-70
2023/04/22 11:25:14;;;;;;;3.78;2.67;;;;;;;14.39;66.70;100483.59;5098481;28;20052;-70
2023/04/22 11:27:42;;;;;;;5.10;2.60;;;;;;;14.43;66.59;100492.03;5102366;28;20139;-70
2023/04/22 11:30:13;;;;;;;10.10;2.78;;;;;;;14.43;66.14;100489.34;5093330;28;20040;-71
2023/04/22 11:32:43;;;;;;;4.20;2.55;;;;;;;14.41;66.40;100488.75;5101284;28;20307;-69